sensor_id;sensor_type;location;lat;lon;timestamp;temperature;humidity
37956;DHT22;23776;51.592;7.180;2022-09-23T00:00:35;9.90;2.60
37956;DHT22;23776;51.592;7.180;2022-09-23T00:03:01;9.90;2.20
37956;DHT22;23776;51.592;7.180;2022-09-23T00:05:27;9.90;4.60
37956;DHT22;23776;51.592;7.180;2022-09-23T00:07:56;9.90;2.40
37956;DHT22;23776;51.592;7.180;2022-09-23T00:10:23;9.90;4.90
37956;DHT22;23776;51.592;7.180;2022-09-23T00:12:49;9.90;3.40
37956;DHT22;23776;51.592;7.180;2022-09-23T00:15:15;9.90;4.40
37956;DHT22;23776;51.592;7.180;2022-09-23T00:17:41;9.90;6.70
37956;DHT22;23776;51.592;7.180;2022-09-23T00:20:07;9.80;6.50
37956;DHT22;23776;51.592;7.180;2022-09-23T00:22:36;9.80;7.50
37956;DHT22;23776;51.592;7.180;2022-09-23T00:25:04;9.80;10.30
37956;DHT22;23776;51.592;7.180;2022-09-23T00:27:30;9.80;6.50
37956;DHT22;23776;51.592;7.180;2022-09-23T00:29:55;9.90;2.40
37956;DHT22;23776;51.592;7.180;2022-09-23T00:32:21;9.80;2.10
37956;DHT22;23776;51.592;7.180;2022-09-23T00:34:46;9.90;6.80
37956;DHT22;23776;51.592;7.180;2022-09-23T00:37:13;9.90;3.90
37956;DHT22;23776;51.592;7.180;2022-09-23T00:39:39;9.80;1.20
37956;DHT22;23776;51.592;7.180;2022-09-23T00:42:05;9.80;1.00
37956;DHT22;23776;51.592;7.180;2022-09-23T00:44:48;9.80;1.10
37956;DHT22;23776;51.592;7.180;2022-09-23T00:47:19;9.80;1.00
37956;DHT22;23776;51.592;7.180;2022-09-23T00:49:48;9.70;1.00
37956;DHT22;23776;51.592;7.180;2022-09-23T00:52:17;9.80;5.60
37956;DHT22;23776;51.592;7.180;2022-09-23T00:54:46;9.80;1.00
37956;DHT22;23776;51.592;7.180;2022-09-23T00:57:15;9.70;1.00
37956;DHT22;23776;51.592;7.180;2022-09-23T00:59:42;9.80;3.90
37956;DHT22;23776;51.592;7.180;2022-09-23T01:02:09;9.80;5.40
37956;DHT22;23776;51.592;7.180;2022-09-23T01:04:37;9.80;4.20
37956;DHT22;23776;51.592;7.180;2022-09-23T01:07:03;9.70;3.20
37956;DHT22;23776;51.592;7.180;2022-09-23T01:09:29;9.70;1.00
37956;DHT22;23776;51.592;7.180;2022-09-23T01:14:55;9.80;10.50
37956;DHT22;23776;51.592;7.180;2022-09-23T01:17:46;9.80;7.80
37956;DHT22;23776;51.592;7.180;2022-09-23T01:31:08;9.60;4.30
37956;DHT22;23776;51.592;7.180;2022-09-23T01:33:56;9.60;3.40
37956;DHT22;23776;51.592;7.180;2022-09-23T01:39:09;9.50;6.40
37956;DHT22;23776;51.592;7.180;2022-09-23T01:41:51;9.50;6.00
37956;DHT22;23776;51.592;7.180;2022-09-23T01:44:45;9.50;12.00
37956;DHT22;23776;51.592;7.180;2022-09-23T01:47:24;9.60;13.00
37956;DHT22;23776;51.592;7.180;2022-09-23T01:50:15;9.50;15.00
37956;DHT22;23776;51.592;7.180;2022-09-23T01:53:05;9.50;13.40
37956;DHT22;23776;51.592;7.180;2022-09-23T01:55:35;9.50;16.20
37956;DHT22;23776;51.592;7.180;2022-09-23T01:58:06;9.50;17.10
37956;DHT22;23776;51.592;7.180;2022-09-23T02:00:37;9.50;12.70
37956;DHT22;23776;51.592;7.180;2022-09-23T02:03:17;9.40;14.90
37956;DHT22;23776;51.592;7.180;2022-09-23T02:05:51;9.50;13.50
37956;DHT22;23776;51.592;7.180;2022-09-23T02:08:24;9.40;17.50
37956;DHT22;23776;51.592;7.180;2022-09-23T02:10:57;9.40;21.50
37956;DHT22;23776;51.592;7.180;2022-09-23T02:13:29;9.40;17.50
37956;DHT22;23776;51.592;7.180;2022-09-23T02:16:00;9.40;15.20
37956;DHT22;23776;51.592;7.180;2022-09-23T02:18:32;9.40;15.90
37956;DHT22;23776;51.592;7.180;2022-09-23T02:21:03;9.40;17.70
37956;DHT22;23776;51.592;7.180;2022-09-23T02:23:37;9.40;17.30
37956;DHT22;23776;51.592;7.180;2022-09-23T02:26:29;9.40;17.80
37956;DHT22;23776;51.592;7.180;2022-09-23T02:29:20;9.30;18.90
37956;DHT22;23776;51.592;7.180;2022-09-23T02:37:24;9.30;13.10
37956;DHT22;23776;51.592;7.180;2022-09-23T02:42:21;9.20;15.10
37956;DHT22;23776;51.592;7.180;2022-09-23T02:44:47;9.20;19.20
37956;DHT22;23776;51.592;7.180;2022-09-23T02:47:13;9.30;18.70
37956;DHT22;23776;51.592;7.180;2022-09-23T02:49:39;9.30;17.90
37956;DHT22;23776;51.592;7.180;2022-09-23T02:52:05;10.70;19.40
37956;DHT22;23776;51.592;7.180;2022-09-23T02:54:32;9.10;22.50
37956;DHT22;23776;51.592;7.180;2022-09-23T02:57:04;9.20;20.10
37956;DHT22;23776;51.592;7.180;2022-09-23T02:59:31;9.20;19.10
37956;DHT22;23776;51.592;7.180;2022-09-23T03:10:39;9.20;19.10
37956;DHT22;23776;51.592;7.180;2022-09-23T03:18:44;9.20;13.80
37956;DHT22;23776;51.592;7.180;2022-09-23T03:21:39;9.10;13.30
37956;DHT22;23776;51.592;7.180;2022-09-23T03:24:07;9.10;16.40
37956;DHT22;23776;51.592;7.180;2022-09-23T03:26:36;9.10;16.90
37956;DHT22;23776;51.592;7.180;2022-09-23T03:29:05;9.10;19.30
37956;DHT22;23776;51.592;7.180;2022-09-23T03:31:34;9.00;20.20
37956;DHT22;23776;51.592;7.180;2022-09-23T03:34:04;9.00;22.40
37956;DHT22;23776;51.592;7.180;2022-09-23T03:36:35;9.00;23.50
37956;DHT22;23776;51.592;7.180;2022-09-23T03:39:40;9.00;21.50
37956;DHT22;23776;51.592;7.180;2022-09-23T03:42:26;9.00;21.30
37956;DHT22;23776;51.592;7.180;2022-09-23T03:44:55;9.00;23.70
37956;DHT22;23776;51.592;7.180;2022-09-23T03:47:24;9.00;23.10
37956;DHT22;23776;51.592;7.180;2022-09-23T03:49:51;9.00;23.30
37956;DHT22;23776;51.592;7.180;2022-09-23T03:52:19;9.00;21.70
37956;DHT22;23776;51.592;7.180;2022-09-23T03:54:45;9.00;21.10
37956;DHT22;23776;51.592;7.180;2022-09-23T03:57:11;8.90;18.80
37956;DHT22;23776;51.592;7.180;2022-09-23T03:59:38;8.90;18.10
37956;DHT22;23776;51.592;7.180;2022-09-23T04:02:04;8.90;20.60
37956;DHT22;23776;51.592;7.180;2022-09-23T04:04:36;8.90;26.00
37956;DHT22;23776;51.592;7.180;2022-09-23T04:07:02;8.90;25.50
37956;DHT22;23776;51.592;7.180;2022-09-23T04:09:28;8.90;23.50
37956;DHT22;23776;51.592;7.180;2022-09-23T04:11:53;8.90;23.50
37956;DHT22;23776;51.592;7.180;2022-09-23T04:14:21;8.90;24.80
37956;DHT22;23776;51.592;7.180;2022-09-23T04:16:47;8.90;24.90
37956;DHT22;23776;51.592;7.180;2022-09-23T04:19:13;8.90;27.50
37956;DHT22;23776;51.592;7.180;2022-09-23T04:21:40;8.80;26.20
37956;DHT22;23776;51.592;7.180;2022-09-23T04:24:06;8.80;27.10
37956;DHT22;23776;51.592;7.180;2022-09-23T04:26:32;8.80;28.10
37956;DHT22;23776;51.592;7.180;2022-09-23T04:28:58;8.80;24.70
37956;DHT22;23776;51.592;7.180;2022-09-23T04:31:24;8.70;25.10
37956;DHT22;23776;51.592;7.180;2022-09-23T04:33:53;8.70;23.90
37956;DHT22;23776;51.592;7.180;2022-09-23T04:36:19;8.70;22.80
37956;DHT22;23776;51.592;7.180;2022-09-23T04:38:46;8.70;20.90
37956;DHT22;23776;51.592;7.180;2022-09-23T04:41:12;8.60;21.90
37956;DHT22;23776;51.592;7.180;2022-09-23T04:43:38;8.60;20.00
37956;DHT22;23776;51.592;7.180;2022-09-23T04:46:06;8.60;24.10
37956;DHT22;23776;51.592;7.180;2022-09-23T04:48:32;8.60;20.70
37956;DHT22;23776;51.592;7.180;2022-09-23T04:51:11;8.60;18.30
37956;DHT22;23776;51.592;7.180;2022-09-23T04:53:38;8.60;21.60
37956;DHT22;23776;51.592;7.180;2022-09-23T04:56:10;8.60;21.70
37956;DHT22;23776;51.592;7.180;2022-09-23T04:58:37;8.50;20.80
37956;DHT22;23776;51.592;7.180;2022-09-23T05:01:23;8.50;21.20
37956;DHT22;23776;51.592;7.180;2022-09-23T05:03:51;8.60;21.00
37956;DHT22;23776;51.592;7.180;2022-09-23T05:06:17;8.50;23.20
37956;DHT22;23776;51.592;7.180;2022-09-23T05:08:52;8.40;25.40
37956;DHT22;23776;51.592;7.180;2022-09-23T05:11:19;8.40;26.80
37956;DHT22;23776;51.592;7.180;2022-09-23T05:13:47;8.40;29.50
37956;DHT22;23776;51.592;7.180;2022-09-23T05:16:13;8.40;31.20
37956;DHT22;23776;51.592;7.180;2022-09-23T05:18:40;8.30;31.40
37956;DHT22;23776;51.592;7.180;2022-09-23T05:21:08;8.40;30.80
37956;DHT22;23776;51.592;7.180;2022-09-23T05:23:35;8.40;32.10
37956;DHT22;23776;51.592;7.180;2022-09-23T05:26:02;8.40;32.70
37956;DHT22;23776;51.592;7.180;2022-09-23T05:28:29;8.40;29.30
37956;DHT22;23776;51.592;7.180;2022-09-23T05:31:24;8.40;30.90
37956;DHT22;23776;51.592;7.180;2022-09-23T05:33:53;8.40;29.80
37956;DHT22;23776;51.592;7.180;2022-09-23T05:36:22;8.40;29.00
37956;DHT22;23776;51.592;7.180;2022-09-23T05:38:49;8.00;30.70
37956;DHT22;23776;51.592;7.180;2022-09-23T05:41:16;8.50;29.90
37956;DHT22;23776;51.592;7.180;2022-09-23T05:43:42;8.50;28.90
37956;DHT22;23776;51.592;7.180;2022-09-23T05:46:16;8.50;29.30
37956;DHT22;23776;51.592;7.180;2022-09-23T05:48:43;8.40;28.20
37956;DHT22;23776;51.592;7.180;2022-09-23T05:51:14;8.50;29.30
37956;DHT22;23776;51.592;7.180;2022-09-23T05:53:40;9.20;29.90
37956;DHT22;23776;51.592;7.180;2022-09-23T05:56:10;8.50;31.20
37956;DHT22;23776;51.592;7.180;2022-09-23T05:58:36;8.50;32.80
37956;DHT22;23776;51.592;7.180;2022-09-23T06:01:08;8.50;30.20
37956;DHT22;23776;51.592;7.180;2022-09-23T06:03:34;8.60;32.70
37956;DHT22;23776;51.592;7.180;2022-09-23T06:05:59;8.60;33.80
37956;DHT22;23776;51.592;7.180;2022-09-23T06:08:25;8.60;33.70
37956;DHT22;23776;51.592;7.180;2022-09-23T06:10:51;8.60;31.80
37956;DHT22;23776;51.592;7.180;2022-09-23T06:13:17;8.70;32.80
37956;DHT22;23776;51.592;7.180;2022-09-23T06:15:42;8.80;32.20
37956;DHT22;23776;51.592;7.180;2022-09-23T06:18:09;8.80;34.20
37956;DHT22;23776;51.592;7.180;2022-09-23T06:20:37;8.90;34.10
37956;DHT22;23776;51.592;7.180;2022-09-23T06:23:08;8.90;34.20
37956;DHT22;23776;51.592;7.180;2022-09-23T06:25:35;8.90;32.80
37956;DHT22;23776;51.592;7.180;2022-09-23T06:28:04;9.00;31.40
37956;DHT22;23776;51.592;7.180;2022-09-23T06:30:37;9.00;31.40
37956;DHT22;23776;51.592;7.180;2022-09-23T06:33:04;9.10;32.50
37956;DHT22;23776;51.592;7.180;2022-09-23T06:35:29;9.30;31.40
37956;DHT22;23776;51.592;7.180;2022-09-23T06:37:57;9.40;31.50
37956;DHT22;23776;51.592;7.180;2022-09-23T06:40:23;9.50;31.60
37956;DHT22;23776;51.592;7.180;2022-09-23T06:42:57;9.60;32.30
37956;DHT22;23776;51.592;7.180;2022-09-23T06:45:23;9.70;29.40
37956;DHT22;23776;51.592;7.180;2022-09-23T06:47:53;9.90;28.70
37956;DHT22;23776;51.592;7.180;2022-09-23T06:50:26;10.00;27.10
37956;DHT22;23776;51.592;7.180;2022-09-23T06:52:53;10.20;25.60
37956;DHT22;23776;51.592;7.180;2022-09-23T06:55:26;10.30;23.30
37956;DHT22;23776;51.592;7.180;2022-09-23T06:57:53;10.50;21.90
37956;DHT22;23776;51.592;7.180;2022-09-23T07:00:19;10.70;21.10
37956;DHT22;23776;51.592;7.180;2022-09-23T07:02:44;10.90;19.00
37956;DHT22;23776;51.592;7.180;2022-09-23T07:05:10;11.00;12.10
37956;DHT22;23776;51.592;7.180;2022-09-23T07:07:36;11.20;7.60
37956;DHT22;23776;51.592;7.180;2022-09-23T07:10:04;11.40;1.00
37956;DHT22;23776;51.592;7.180;2022-09-23T07:12:31;11.60;1.00
37956;DHT22;23776;51.592;7.180;2022-09-23T07:14:57;11.70;99.90
37956;DHT22;23776;51.592;7.180;2022-09-23T07:17:23;11.90;1.00
37956;DHT22;23776;51.592;7.180;2022-09-23T07:19:49;12.10;99.90
37956;DHT22;23776;51.592;7.180;2022-09-23T07:22:23;12.30;1.00
37956;DHT22;23776;51.592;7.180;2022-09-23T07:24:49;12.40;99.90
37956;DHT22;23776;51.592;7.180;2022-09-23T07:27:16;12.50;99.90
37956;DHT22;23776;51.592;7.180;2022-09-23T07:29:44;12.70;99.90
37956;DHT22;23776;51.592;7.180;2022-09-23T07:32:12;12.80;99.90
37956;DHT22;23776;51.592;7.180;2022-09-23T07:34:37;12.90;99.90
37956;DHT22;23776;51.592;7.180;2022-09-23T07:37:03;13.00;99.90
37956;DHT22;23776;51.592;7.180;2022-09-23T07:39:29;13.10;2.40
37956;DHT22;23776;51.592;7.180;2022-09-23T07:41:55;13.30;1.00
37956;DHT22;23776;51.592;7.180;2022-09-23T07:44:21;13.40;1.00
37956;DHT22;23776;51.592;7.180;2022-09-23T07:46:47;13.50;99.90
37956;DHT22;23776;51.592;7.180;2022-09-23T07:49:16;15.20;99.90
37956;DHT22;23776;51.592;7.180;2022-09-23T07:51:42;13.80;99.90
37956;DHT22;23776;51.592;7.180;2022-09-23T07:54:13;13.90;99.90
37956;DHT22;23776;51.592;7.180;2022-09-23T07:56:40;14.10;99.90
37956;DHT22;23776;51.592;7.180;2022-09-23T07:59:07;14.10;1.00
37956;DHT22;23776;51.592;7.180;2022-09-23T08:01:35;14.30;1.00
37956;DHT22;23776;51.592;7.180;2022-09-23T08:04:12;14.40;1.00
37956;DHT22;23776;51.592;7.180;2022-09-23T08:06:42;14.50;99.90
37956;DHT22;23776;51.592;7.180;2022-09-23T08:09:09;14.50;99.90
37956;DHT22;23776;51.592;7.180;2022-09-23T08:11:35;14.70;99.90
37956;DHT22;23776;51.592;7.180;2022-09-23T08:14:07;14.80;99.90
37956;DHT22;23776;51.592;7.180;2022-09-23T08:16:34;14.80;1.00
37956;DHT22;23776;51.592;7.180;2022-09-23T08:19:00;14.80;1.00
37956;DHT22;23776;51.592;7.180;2022-09-23T08:21:26;14.90;1.00
37956;DHT22;23776;51.592;7.180;2022-09-23T08:23:52;14.90;99.90
37956;DHT22;23776;51.592;7.180;2022-09-23T08:26:17;15.00;99.90
37956;DHT22;23776;51.592;7.180;2022-09-23T08:28:43;15.00;99.90
37956;DHT22;23776;51.592;7.180;2022-09-23T08:31:11;15.10;99.90
37956;DHT22;23776;51.592;7.180;2022-09-23T08:33:38;15.20;99.90
37956;DHT22;23776;51.592;7.180;2022-09-23T08:36:05;15.20;99.90
37956;DHT22;23776;51.592;7.180;2022-09-23T08:38:31;15.30;6.80
37956;DHT22;23776;51.592;7.180;2022-09-23T08:43:53;15.60;1.00
37956;DHT22;23776;51.592;7.180;2022-09-23T08:46:30;15.60;99.90
37956;DHT22;23776;51.592;7.180;2022-09-23T08:48:59;15.60;99.90
37956;DHT22;23776;51.592;7.180;2022-09-23T08:51:29;15.70;99.90
37956;DHT22;23776;51.592;7.180;2022-09-23T08:53:59;15.90;99.90
37956;DHT22;23776;51.592;7.180;2022-09-23T08:56:27;15.90;99.90
37956;DHT22;23776;51.592;7.180;2022-09-23T09:07:18;16.20;99.90
37956;DHT22;23776;51.592;7.180;2022-09-23T09:15:28;16.50;99.90
37956;DHT22;23776;51.592;7.180;2022-09-23T09:18:19;16.60;59.20
37956;DHT22;23776;51.592;7.180;2022-09-23T09:26:11;16.10;99.90
37956;DHT22;23776;51.592;7.180;2022-09-23T09:28:55;16.90;99.90
37956;DHT22;23776;51.592;7.180;2022-09-23T09:31:38;17.00;99.90
37956;DHT22;23776;51.592;7.180;2022-09-23T09:34:16;17.10;99.90
37956;DHT22;23776;51.592;7.180;2022-09-23T09:36:57;17.00;99.90
37956;DHT22;23776;51.592;7.180;2022-09-23T09:39:26;17.10;99.90
37956;DHT22;23776;51.592;7.180;2022-09-23T09:41:52;17.20;99.90
37956;DHT22;23776;51.592;7.180;2022-09-23T09:50:13;17.50;67.30
37956;DHT22;23776;51.592;7.180;2022-09-23T09:52:43;17.70;76.80
37956;DHT22;23776;51.592;7.180;2022-09-23T10:02:57;17.70;1.00
37956;DHT22;23776;51.592;7.180;2022-09-23T10:05:31;18.30;1.00
37956;DHT22;23776;51.592;7.180;2022-09-23T10:10:50;18.50;99.90
37956;DHT22;23776;51.592;7.180;2022-09-23T10:13:20;18.40;99.90
37956;DHT22;23776;51.592;7.180;2022-09-23T10:15:48;18.20;99.90
37956;DHT22;23776;51.592;7.180;2022-09-23T10:21:07;18.20;99.90
37956;DHT22;23776;51.592;7.180;2022-09-23T10:23:38;18.20;99.90
37956;DHT22;23776;51.592;7.180;2022-09-23T10:26:05;18.20;99.90
37956;DHT22;23776;51.592;7.180;2022-09-23T10:28:51;18.30;99.90
37956;DHT22;23776;51.592;7.180;2022-09-23T10:31:29;18.30;99.90
37956;DHT22;23776;51.592;7.180;2022-09-23T10:34:21;17.80;99.90
37956;DHT22;23776;51.592;7.180;2022-09-23T10:37:16;18.50;99.90
37956;DHT22;23776;51.592;7.180;2022-09-23T10:39:42;18.60;99.90
37956;DHT22;23776;51.592;7.180;2022-09-23T10:45:39;18.90;99.90
37956;DHT22;23776;51.592;7.180;2022-09-23T10:48:46;19.10;99.90
37956;DHT22;23776;51.592;7.180;2022-09-23T10:51:39;19.20;99.90
37956;DHT22;23776;51.592;7.180;2022-09-23T10:55:14;19.30;99.90
37956;DHT22;23776;51.592;7.180;2022-09-23T11:08:21;19.40;99.90
37956;DHT22;23776;51.592;7.180;2022-09-23T11:24:21;21.00;99.90
37956;DHT22;23776;51.592;7.180;2022-09-23T11:29:44;21.40;99.90
37956;DHT22;23776;51.592;7.180;2022-09-23T11:32:23;21.40;99.90
37956;DHT22;23776;51.592;7.180;2022-09-23T11:37:29;21.70;99.90
37956;DHT22;23776;51.592;7.180;2022-09-23T11:40:31;21.90;99.90
37956;DHT22;23776;51.592;7.180;2022-09-23T11:43:02;22.40;99.90
37956;DHT22;23776;51.592;7.180;2022-09-23T11:45:34;22.50;99.90
37956;DHT22;23776;51.592;7.180;2022-09-23T11:48:26;23.10;99.90
37956;DHT22;23776;51.592;7.180;2022-09-23T11:51:04;23.60;99.90
37956;DHT22;23776;51.592;7.180;2022-09-23T11:56:20;23.30;99.90
37956;DHT22;23776;51.592;7.180;2022-09-23T12:09:54;23.90;99.90
37956;DHT22;23776;51.592;7.180;2022-09-23T12:26:21;23.00;96.00
37956;DHT22;23776;51.592;7.180;2022-09-23T12:28:49;22.80;97.80
37956;DHT22;23776;51.592;7.180;2022-09-23T12:31:18;22.30;97.60
37956;DHT22;23776;51.592;7.180;2022-09-23T12:33:50;22.60;97.50
37956;DHT22;23776;51.592;7.180;2022-09-23T12:36:24;22.60;96.30
37956;DHT22;23776;51.592;7.180;2022-09-23T12:39:28;22.20;97.90
37956;DHT22;23776;51.592;7.180;2022-09-23T12:47:41;22.20;99.00
37956;DHT22;23776;51.592;7.180;2022-09-23T12:56:15;21.90;99.90
37956;DHT22;23776;51.592;7.180;2022-09-23T13:01:17;21.20;99.90
37956;DHT22;23776;51.592;7.180;2022-09-23T13:03:47;20.80;99.90
37956;DHT22;23776;51.592;7.180;2022-09-23T13:09:48;20.40;99.90
37956;DHT22;23776;51.592;7.180;2022-09-23T13:12:31;20.10;99.90
37956;DHT22;23776;51.592;7.180;2022-09-23T13:15:00;20.00;99.90
37956;DHT22;23776;51.592;7.180;2022-09-23T13:17:34;20.10;99.90
37956;DHT22;23776;51.592;7.180;2022-09-23T13:25:23;19.70;99.90
37956;DHT22;23776;51.592;7.180;2022-09-23T13:27:53;19.90;99.90
37956;DHT22;23776;51.592;7.180;2022-09-23T13:30:23;20.20;99.90
37956;DHT22;23776;51.592;7.180;2022-09-23T13:33:15;20.40;99.90
37956;DHT22;23776;51.592;7.180;2022-09-23T13:35:43;20.40;99.90
37956;DHT22;23776;51.592;7.180;2022-09-23T13:38:21;20.30;99.90
37956;DHT22;23776;51.592;7.180;2022-09-23T13:40:53;20.10;99.90
37956;DHT22;23776;51.592;7.180;2022-09-23T13:43:24;20.10;99.90
37956;DHT22;23776;51.592;7.180;2022-09-23T13:45:52;20.00;99.90
37956;DHT22;23776;51.592;7.180;2022-09-23T13:48:18;20.00;99.90
37956;DHT22;23776;51.592;7.180;2022-09-23T13:50:48;20.20;99.90
37956;DHT22;23776;51.592;7.180;2022-09-23T13:55:46;20.50;99.90
37956;DHT22;23776;51.592;7.180;2022-09-23T13:58:22;20.60;99.90
37956;DHT22;23776;51.592;7.180;2022-09-23T14:00:49;20.80;99.90
37956;DHT22;23776;51.592;7.180;2022-09-23T14:03:24;20.70;99.90
37956;DHT22;23776;51.592;7.180;2022-09-23T14:05:55;20.80;99.90
37956;DHT22;23776;51.592;7.180;2022-09-23T14:08:22;20.90;99.90
37956;DHT22;23776;51.592;7.180;2022-09-23T14:10:48;21.00;99.90
37956;DHT22;23776;51.592;7.180;2022-09-23T14:13:16;21.00;99.90
37956;DHT22;23776;51.592;7.180;2022-09-23T14:15:42;21.00;99.90
37956;DHT22;23776;51.592;7.180;2022-09-23T14:18:23;20.90;99.90
37956;DHT22;23776;51.592;7.180;2022-09-23T14:20:51;20.90;99.90
37956;DHT22;23776;51.592;7.180;2022-09-23T14:23:16;21.10;99.90
37956;DHT22;23776;51.592;7.180;2022-09-23T14:25:43;21.20;99.90
37956;DHT22;23776;51.592;7.180;2022-09-23T14:28:17;21.10;99.90
37956;DHT22;23776;51.592;7.180;2022-09-23T14:30:45;21.00;99.90
37956;DHT22;23776;51.592;7.180;2022-09-23T14:33:17;20.70;99.90
37956;DHT22;23776;51.592;7.180;2022-09-23T14:35:49;20.60;99.90
37956;DHT22;23776;51.592;7.180;2022-09-23T14:38:28;20.50;99.90
37956;DHT22;23776;51.592;7.180;2022-09-23T14:41:19;20.40;99.90
37956;DHT22;23776;51.592;7.180;2022-09-23T14:44:06;20.40;99.90
37956;DHT22;23776;51.592;7.180;2022-09-23T14:46:59;20.30;99.90
37956;DHT22;23776;51.592;7.180;2022-09-23T14:49:25;20.30;99.90
37956;DHT22;23776;51.592;7.180;2022-09-23T14:51:53;20.20;99.90
37956;DHT22;23776;51.592;7.180;2022-09-23T15:02:40;19.50;99.90
37956;DHT22;23776;51.592;7.180;2022-09-23T15:05:20;19.40;99.90
37956;DHT22;23776;51.592;7.180;2022-09-23T15:07:49;19.40;99.90
37956;DHT22;23776;51.592;7.180;2022-09-23T15:12:45;19.10;99.90
37956;DHT22;23776;51.592;7.180;2022-09-23T15:15:12;19.10;99.90
37956;DHT22;23776;51.592;7.180;2022-09-23T15:17:38;19.10;99.90
37956;DHT22;23776;51.592;7.180;2022-09-23T15:20:07;19.00;99.90
37956;DHT22;23776;51.592;7.180;2022-09-23T15:22:45;18.90;99.90
37956;DHT22;23776;51.592;7.180;2022-09-23T15:25:18;18.90;99.90
37956;DHT22;23776;51.592;7.180;2022-09-23T15:27:56;18.90;99.90
37956;DHT22;23776;51.592;7.180;2022-09-23T15:30:22;19.00;99.90
37956;DHT22;23776;51.592;7.180;2022-09-23T15:32:48;18.90;99.90
37956;DHT22;23776;51.592;7.180;2022-09-23T15:35:17;18.90;99.90
37956;DHT22;23776;51.592;7.180;2022-09-23T15:37:44;18.80;99.90
37956;DHT22;23776;51.592;7.180;2022-09-23T15:40:23;18.80;99.90
37956;DHT22;23776;51.592;7.180;2022-09-23T15:42:51;18.70;99.90
37956;DHT22;23776;51.592;7.180;2022-09-23T15:45:28;18.70;99.90
37956;DHT22;23776;51.592;7.180;2022-09-23T15:47:58;18.60;99.90
37956;DHT22;23776;51.592;7.180;2022-09-23T15:50:26;18.50;99.90
37956;DHT22;23776;51.592;7.180;2022-09-23T15:52:52;18.40;99.90
37956;DHT22;23776;51.592;7.180;2022-09-23T15:55:19;18.50;99.90
37956;DHT22;23776;51.592;7.180;2022-09-23T15:57:48;18.40;99.90
37956;DHT22;23776;51.592;7.180;2022-09-23T16:00:14;18.40;99.90
37956;DHT22;23776;51.592;7.180;2022-09-23T16:02:42;18.30;99.90
37956;DHT22;23776;51.592;7.180;2022-09-23T16:05:36;18.30;99.90
37956;DHT22;23776;51.592;7.180;2022-09-23T16:08:04;18.20;99.90
37956;DHT22;23776;51.592;7.180;2022-09-23T16:10:30;18.20;99.90
37956;DHT22;23776;51.592;7.180;2022-09-23T16:12:57;18.10;99.90
37956;DHT22;23776;51.592;7.180;2022-09-23T16:15:28;18.10;99.90
37956;DHT22;23776;51.592;7.180;2022-09-23T16:17:54;18.00;99.90
37956;DHT22;23776;51.592;7.180;2022-09-23T16:20:20;18.00;99.90
37956;DHT22;23776;51.592;7.180;2022-09-23T16:22:53;18.00;99.90
37956;DHT22;23776;51.592;7.180;2022-09-23T16:25:20;17.90;99.90
37956;DHT22;23776;51.592;7.180;2022-09-23T16:27:47;17.90;99.90
37956;DHT22;23776;51.592;7.180;2022-09-23T16:30:14;17.70;99.90
37956;DHT22;23776;51.592;7.180;2022-09-23T16:32:40;17.80;99.90
37956;DHT22;23776;51.592;7.180;2022-09-23T16:35:06;17.70;99.90
37956;DHT22;23776;51.592;7.180;2022-09-23T16:37:33;17.60;99.90
37956;DHT22;23776;51.592;7.180;2022-09-23T16:39:58;17.60;1.00
37956;DHT22;23776;51.592;7.180;2022-09-23T16:42:24;17.60;99.90
37956;DHT22;23776;51.592;7.180;2022-09-23T16:44:50;17.50;99.90
37956;DHT22;23776;51.592;7.180;2022-09-23T16:47:15;17.50;99.90
37956;DHT22;23776;51.592;7.180;2022-09-23T16:49:41;17.40;1.00
37956;DHT22;23776;51.592;7.180;2022-09-23T16:52:07;17.30;1.00
37956;DHT22;23776;51.592;7.180;2022-09-23T16:54:37;17.20;91.90
37956;DHT22;23776;51.592;7.180;2022-09-23T16:57:03;17.10;99.90
37956;DHT22;23776;51.592;7.180;2022-09-23T16:59:29;17.00;99.90
37956;DHT22;23776;51.592;7.180;2022-09-23T17:02:15;16.80;99.90
37956;DHT22;23776;51.592;7.180;2022-09-23T17:04:59;16.70;1.00
37956;DHT22;23776;51.592;7.180;2022-09-23T17:07:26;16.50;1.00
37956;DHT22;23776;51.592;7.180;2022-09-23T17:09:51;16.40;1.00
37956;DHT22;23776;51.592;7.180;2022-09-23T17:12:25;16.20;99.90
37956;DHT22;23776;51.592;7.180;2022-09-23T17:14:53;16.10;99.90
37956;DHT22;23776;51.592;7.180;2022-09-23T17:17:19;16.00;1.00
37956;DHT22;23776;51.592;7.180;2022-09-23T17:19:45;15.90;7.40
37956;DHT22;23776;51.592;7.180;2022-09-23T17:22:10;16.00;99.90
37956;DHT22;23776;51.592;7.180;2022-09-23T17:24:36;15.80;99.90
37956;DHT22;23776;51.592;7.180;2022-09-23T17:27:01;15.80;99.90
37956;DHT22;23776;51.592;7.180;2022-09-23T17:29:27;15.70;1.00
37956;DHT22;23776;51.592;7.180;2022-09-23T17:31:53;15.60;1.00
37956;DHT22;23776;51.592;7.180;2022-09-23T17:34:19;15.60;1.00
37956;DHT22;23776;51.592;7.180;2022-09-23T17:36:45;15.50;1.00
37956;DHT22;23776;51.592;7.180;2022-09-23T17:39:10;15.50;1.00
37956;DHT22;23776;51.592;7.180;2022-09-23T17:41:36;15.50;1.00
37956;DHT22;23776;51.592;7.180;2022-09-23T17:44:04;15.30;1.00
37956;DHT22;23776;51.592;7.180;2022-09-23T17:46:30;15.40;1.00
37956;DHT22;23776;51.592;7.180;2022-09-23T17:48:56;15.40;1.00
37956;DHT22;23776;51.592;7.180;2022-09-23T17:51:23;15.40;1.00
37956;DHT22;23776;51.592;7.180;2022-09-23T17:53:49;15.40;1.00
37956;DHT22;23776;51.592;7.180;2022-09-23T17:56:19;15.30;1.00
37956;DHT22;23776;51.592;7.180;2022-09-23T17:58:46;15.20;1.00
37956;DHT22;23776;51.592;7.180;2022-09-23T18:01:18;15.20;1.00
37956;DHT22;23776;51.592;7.180;2022-09-23T18:03:44;15.20;1.00
37956;DHT22;23776;51.592;7.180;2022-09-23T18:08:35;15.20;1.00
37956;DHT22;23776;51.592;7.180;2022-09-23T18:11:19;15.20;1.00
37956;DHT22;23776;51.592;7.180;2022-09-23T18:13:46;15.20;2.90
37956;DHT22;23776;51.592;7.180;2022-09-23T18:16:12;15.10;2.70
37956;DHT22;23776;51.592;7.180;2022-09-23T18:18:37;15.10;2.50
37956;DHT22;23776;51.592;7.180;2022-09-23T18:21:04;15.10;10.10
37956;DHT22;23776;51.592;7.180;2022-09-23T18:23:29;15.10;14.60
37956;DHT22;23776;51.592;7.180;2022-09-23T18:25:57;15.10;12.10
37956;DHT22;23776;51.592;7.180;2022-09-23T18:28:23;15.10;10.60
37956;DHT22;23776;51.592;7.180;2022-09-23T18:30:53;15.00;8.30
37956;DHT22;23776;51.592;7.180;2022-09-23T18:33:18;15.00;1.70
37956;DHT22;23776;51.592;7.180;2022-09-23T18:35:45;15.00;1.00
37956;DHT22;23776;51.592;7.180;2022-09-23T18:38:11;15.00;1.00
37956;DHT22;23776;51.592;7.180;2022-09-23T18:40:37;15.00;1.00
37956;DHT22;23776;51.592;7.180;2022-09-23T18:43:03;15.00;4.70
37956;DHT22;23776;51.592;7.180;2022-09-23T18:45:29;15.00;6.00
37956;DHT22;23776;51.592;7.180;2022-09-23T18:47:55;15.00;8.90
37956;DHT22;23776;51.592;7.180;2022-09-23T18:50:50;15.00;9.00
37956;DHT22;23776;51.592;7.180;2022-09-23T18:53:16;14.90;9.20
37956;DHT22;23776;51.592;7.180;2022-09-23T18:55:43;14.90;16.00
37956;DHT22;23776;51.592;7.180;2022-09-23T18:58:09;14.90;18.20
37956;DHT22;23776;51.592;7.180;2022-09-23T19:00:37;14.90;18.90